Time;durP1;ratioP1;P1;durP2;ratioP2;P2;SDS_P1;SDS_P2;PMS_P1;PMS_P2;Temp;Humidity;BMP_temperature;BMP_pressure;BME280_temperature;BME280_humidity;BME280_pressure;Samples;Min_cycle;Max_cycle;Signal;HPM_P1;HPM_P2
2022/09/06 00:00:28;;;;;;;5.47;2.75;;;;;;;21.41;85.77;101489.34;5052577;28;20049;-58
2022/09/06 00:02:57;;;;;;;7.45;2.97;;;;;;;21.44;85.36;101489.03;5052952;28;20045;-59
2022/09/06 00:05:26;;;;;;;5.43;2.58;;;;;;;21.42;85.68;101482.19;5052608;28;20048;-59
2022/09/06 00:07:54;;;;;;;5.80;2.60;;;;;;;21.34;85.73;101485.63;5052553;28;20045;-57
2022/09/06 00:10:23;;;;;;;7.60;2.80;;;;;;;21.35;85.23;101481.97;5051420;28;20052;-59
2022/09/06 00:12:51;;;;;;;6.20;2.50;;;;;;;21.36;85.46;101480.94;5052442;28;20126;-59
2022/09/06 00:15:21;;;;;;;5.75;2.83;;;;;;;21.37;84.84;101482.63;5052496;28;20041;-59
2022/09/06 00:17:50;;;;;;;6.10;2.88;;;;;;;21.34;84.95;101485.63;5052557;28;20491;-56
2022/09/06 00:20:18;;;;;;;6.70;3.13;;;;;;;21.43;84.71;101486.53;5052538;28;20044;-57
2022/09/06 00:22:46;;;;;;;7.18;2.85;;;;;;;21.40;84.80;101482.31;5052567;28;20373;-56
2022/09/06 00:25:14;;;;;;;5.35;2.65;;;;;;;21.37;84.79;101485.31;5052630;28;20041;-59
2022/09/06 00:27:43;;;;;;;6.63;3.00;;;;;;;21.42;84.42;101480.34;5052707;28;20056;-59
2022/09/06 00:30:12;;;;;;;5.85;2.70;;;;;;;21.34;83.78;101482.13;5052425;28;20569;-59
2022/09/06 00:32:40;;;;;;;7.45;2.60;;;;;;;21.30;83.52;101481.59;5052396;28;20052;-59
2022/09/06 00:35:08;;;;;;;6.82;2.65;;;;;;;21.29;84.22;101477.22;5052551;28;20132;-59
2022/09/06 00:37:37;;;;;;;5.68;2.40;;;;;;;21.35;84.37;101471.28;5052189;28;20052;-59
2022/09/06 00:40:06;;;;;;;5.85;2.60;;;;;;;21.40;83.06;101466.25;5052254;28;20049;-60
2022/09/06 00:42:35;;;;;;;5.85;2.65;;;;;;;21.28;83.28;101465.69;5052186;28;20045;-59
2022/09/06 00:45:08;;;;;;;5.75;2.88;;;;;;;21.31;83.22;101453.84;5051835;28;20041;-60
2022/09/06 00:47:38;;;;;;;6.15;2.53;;;;;;;21.28;83.10;101451.47;5051998;28;20127;-56
2022/09/06 00:50:07;;;;;;;5.93;2.65;;;;;;;21.23;83.29;101448.44;5052163;28;20500;-59
2022/09/06 00:52:38;;;;;;;6.18;2.45;;;;;;;21.22;83.07;101446.75;5052216;28;20045;-60
2022/09/06 00:55:07;;;;;;;5.65;2.40;;;;;;;21.14;83.43;101439.50;5051006;28;20454;-56
2022/09/06 00:57:35;;;;;;;4.38;2.00;;;;;;;21.19;83.77;101449.75;5052258;28;20079;-57
2022/09/06 01:00:07;;;;;;;5.93;2.65;;;;;;;21.20;83.72;101456.75;5052260;28;20404;-56
2022/09/06 01:02:37;;;;;;;8.50;2.60;;;;;;;21.31;84.97;101459.19;5053202;28;20135;-59
2022/09/06 01:05:06;;;;;;;5.97;2.70;;;;;;;21.32;84.21;101473.41;5056228;28;20049;-56
2022/09/06 01:07:50;;;;;;;6.00;2.55;;;;;;;21.23;84.96;101485.88;5056027;28;20415;-56
2022/09/06 01:10:42;;;;;;;3.85;2.30;;;;;;;21.06;89.29;101499.09;5055759;28;20045;-55
2022/09/06 01:13:25;;;;;;;7.13;2.80;;;;;;;21.05;93.79;101509.94;5055540;28;20094;-58
2022/09/06 01:16:02;;;;;;;5.95;2.88;;;;;;;20.93;95.14;101520.03;5055643;28;20036;-55
2022/09/06 01:18:43;;;;;;;7.20;3.05;;;;;;;20.64;100.00;101522.84;5055791;28;20040;-49
2022/09/06 01:21:20;;;;;;;7.82;3.40;;;;;;;20.57;100.00;101522.59;5055949;28;20088;-54
2022/09/06 01:24:16;;;;;;;8.48;3.30;;;;;;;20.75;100.00;101523.53;5055877;28;20102;-56
2022/09/06 01:27:14;;;;;;;9.70;3.20;;;;;;;20.64;100.00;101521.00;5054996;28;20558;-49
2022/09/06 01:29:48;;;;;;;10.45;3.25;;;;;;;20.37;100.00;101529.88;5055631;28;20049;-54
2022/09/06 01:32:26;;;;;;;6.90;3.78;;;;;;;20.40;100.00;101521.59;5056023;28;20045;-48
2022/09/06 01:35:02;;;;;;;8.80;4.05;;;;;;;20.36;100.00;101521.03;5055790;28;20051;-48
2022/09/06 01:37:30;;;;;;;8.68;3.65;;;;;;;20.22;100.00;101527.72;5055575;28;20053;-48
2022/09/06 01:39:58;;;;;;;7.55;3.50;;;;;;;20.21;100.00;101528.69;5055355;28;20043;-55
2022/09/06 01:42:30;;;;;;;6.85;3.30;;;;;;;20.18;100.00;101545.00;5055540;28;20115;-51
2022/09/06 01:45:03;;;;;;;7.55;3.92;;;;;;;20.19;100.00;101540.50;5055108;28;20056;-56
2022/09/06 01:47:40;;;;;;;7.22;4.00;;;;;;;20.18;100.00;101539.66;5055374;28;20053;-56
2022/09/06 01:50:34;;;;;;;8.05;3.78;;;;;;;20.23;100.00;101529.41;5055119;28;20041;-53
2022/09/06 01:53:14;;;;;;;6.80;3.20;;;;;;;20.19;100.00;101521.81;5055305;28;20041;-56
2022/09/06 01:55:50;;;;;;;8.90;3.75;;;;;;;20.17;100.00;101516.63;5055412;28;20119;-56
2022/09/06 01:58:35;;;;;;;6.45;3.47;;;;;;;20.10;100.00;101520.88;5054992;28;20503;-55
2022/09/06 02:01:12;;;;;;;7.88;4.07;;;;;;;20.00;100.00;101520.03;5055106;28;20103;-56
2022/09/06 02:03:50;;;;;;;8.40;3.88;;;;;;;20.02;100.00;101513.56;5054927;28;20041;-56
2022/09/06 02:06:22;;;;;;;7.20;3.65;;;;;;;20.09;100.00;101504.00;5054851;28;20049;-56
2022/09/06 02:08:55;;;;;;;6.57;3.72;;;;;;;19.92;100.00;101505.59;5054740;28;20530;-50
2022/09/06 02:11:26;;;;;;;6.47;3.97;;;;;;;19.81;100.00;101492.44;5054996;28;20052;-57
2022/09/06 02:13:58;;;;;;;6.72;4.07;;;;;;;19.81;100.00;101496.94;5053979;28;20462;-53
2022/09/06 02:16:32;;;;;;;9.83;4.40;;;;;;;19.83;100.00;101489.63;5054764;28;20041;-53
2022/09/06 02:19:06;;;;;;;10.23;4.53;;;;;;;19.77;100.00;101475.00;5054776;28;20049;-48
2022/09/06 02:21:39;;;;;;;9.07;4.93;;;;;;;19.75;100.00;101467.13;5054710;28;20080;-57
2022/09/06 02:24:15;;;;;;;7.57;4.70;;;;;;;19.79;100.00;101457.00;5054708;28;20128;-53
2022/09/06 02:26:44;;;;;;;10.60;5.40;;;;;;;19.68;100.00;101447.34;5054633;28;20059;-57
2022/09/06 02:29:12;;;;;;;9.30;6.22;;;;;;;19.55;100.00;101452.16;5054505;28;20099;-57
2022/09/06 02:31:45;;;;;;;9.10;5.45;;;;;;;19.45;100.00;101441.53;5054453;28;20503;-54
2022/09/06 02:34:16;;;;;;;10.43;5.40;;;;;;;19.54;100.00;101426.50;5054528;28;20049;-52
2022/09/06 02:36:45;;;;;;;10.32;5.32;;;;;;;19.53;100.00;101428.31;5054590;28;20049;-57
2022/09/06 02:39:14;;;;;;;8.20;5.75;;;;;;;19.22;100.00;101427.66;5054332;28;20110;-57
2022/09/06 02:41:45;;;;;;;9.48;5.72;;;;;;;19.31;100.00;101418.00;5054235;28;20057;-58
2022/09/06 02:44:13;;;;;;;8.50;5.95;;;;;;;19.22;100.00;101409.00;5053955;28;20068;-53
2022/09/06 02:46:43;;;;;;;9.27;6.07;;;;;;;19.21;100.00;101388.66;5054070;28;20033;-51
2022/09/06 02:49:11;;;;;;;9.18;5.72;;;;;;;19.18;100.00;101364.94;5054146;28;20493;-57
2022/09/06 02:51:39;;;;;;;8.68;5.85;;;;;;;19.24;100.00;101343.91;5054115;28;20049;-54
2022/09/06 02:54:08;;;;;;;9.52;5.80;;;;;;;19.08;100.00;101320.50;5053761;28;20056;-58
2022/09/06 02:56:36;;;;;;;10.23;6.18;;;;;;;19.00;100.00;101307.06;5053582;28;20099;-57
2022/09/06 02:59:04;;;;;;;7.80;5.10;;;;;;;18.98;100.00;101278.84;5053842;28;20048;-57
2022/09/06 03:01:33;;;;;;;8.88;5.15;;;;;;;18.83;100.00;101268.66;5053925;28;20045;-53
2022/09/06 03:04:05;;;;;;;9.27;5.03;;;;;;;18.84;100.00;101259.69;5053750;28;20060;-56
2022/09/06 03:06:34;;;;;;;7.90;4.83;;;;;;;18.83;100.00;101251.78;5053795;28;20053;-58
2022/09/06 03:09:02;;;;;;;8.50;4.88;;;;;;;18.86;100.00;101254.19;5052725;28;20053;-55
2022/09/06 03:11:30;;;;;;;9.65;4.47;;;;;;;18.93;100.00;101255.31;5053507;28;20053;-53
2022/09/06 03:13:58;;;;;;;10.35;4.95;;;;;;;18.87;100.00;101259.38;5053633;28;20041;-51
2022/09/06 03:16:26;;;;;;;7.28;4.65;;;;;;;18.91;100.00;101254.66;5053655;28;20041;-51
2022/09/06 03:18:55;;;;;;;9.07;4.75;;;;;;;18.95;100.00;101266.69;5053796;28;20045;-58
2022/09/06 03:21:24;;;;;;;7.05;4.35;;;;;;;18.97;100.00;101275.38;5053586;28;20094;-57
2022/09/06 03:23:53;;;;;;;8.85;4.60;;;;;;;18.95;100.00;101298.66;5053406;28;20049;-53
2022/09/06 03:26:21;;;;;;;10.02;4.63;;;;;;;18.94;100.00;101331.63;5053409;28;20053;-58
2022/09/06 03:28:50;;;;;;;8.70;5.20;;;;;;;18.98;100.00;101335.69;5053501;28;20139;-58
2022/09/06 03:31:18;;;;;;;9.35;5.97;;;;;;;19.03;100.00;101333.44;5053391;28;20496;-58
2022/09/06 03:33:46;;;;;;;9.32;6.47;;;;;;;19.04;100.00;101336.94;5053245;28;20041;-58
2022/09/06 03:36:14;;;;;;;9.23;6.65;;;;;;;19.04;100.00;101334.25;5053585;28;20671;-59
2022/09/06 03:38:44;;;;;;;9.02;6.28;;;;;;;19.04;100.00;101326.28;5052998;28;20110;-54
2022/09/06 03:41:12;;;;;;;10.10;6.47;;;;;;;19.04;100.00;101320.94;5053259;28;20052;-58
2022/09/06 03:43:42;;;;;;;9.60;6.85;;;;;;;19.16;100.00;101335.78;5053108;28;20107;-49
2022/09/06 03:46:10;;;;;;;9.93;6.55;;;;;;;19.04;100.00;101342.25;5052853;28;20076;-52
2022/09/06 03:48:38;;;;;;;11.40;7.60;;;;;;;19.14;100.00;101347.56;5052951;28;20045;-51
2022/09/06 03:51:07;;;;;;;10.25;7.00;;;;;;;19.19;100.00;101342.66;5052935;28;20048;-51
2022/09/06 03:53:35;;;;;;;10.63;7.35;;;;;;;19.22;100.00;101337.03;5052894;28;20071;-57
2022/09/06 03:56:04;;;;;;;10.05;7.03;;;;;;;19.25;100.00;101350.06;5052947;28;20077;-52
2022/09/06 03:58:33;;;;;;;9.90;6.40;;;;;;;19.12;100.00;101371.69;5052892;28;20424;-52
2022/09/06 04:01:06;;;;;;;9.25;6.88;;;;;;;19.05;100.00;101368.78;5052853;28;20535;-49
2022/09/06 04:03:35;;;;;;;10.20;6.68;;;;;;;19.11;100.00;101369.19;5052784;28;20045;-57
2022/09/06 04:06:05;;;;;;;9.90;6.65;;;;;;;19.19;100.00;101370.13;5052846;28;20060;-48
2022/09/06 04:08:34;;;;;;;9.38;6.32;;;;;;;19.16;100.00;101375.75;5052701;28;20538;-56
2022/09/06 04:11:02;;;;;;;9.27;6.63;;;;;;;19.14;100.00;101379.56;5052659;28;20110;-52
2022/09/06 04:13:33;;;;;;;10.88;6.35;;;;;;;19.10;100.00;101373.66;5052509;28;20073;-52
2022/09/06 04:16:01;;;;;;;9.77;6.65;;;;;;;19.19;100.00;101377.31;5052652;28;20064;-57
2022/09/06 04:18:29;;;;;;;11.05;6.22;;;;;;;19.18;100.00;101368.47;5052548;28;20064;-52
2022/09/06 04:20:58;;;;;;;9.07;6.30;;;;;;;19.11;100.00;101372.69;5052363;28;20048;-53
2022/09/06 04:23:27;;;;;;;10.85;6.57;;;;;;;19.20;100.00;101368.34;5052052;28;20053;-53
2022/09/06 04:25:58;;;;;;;9.55;6.47;;;;;;;19.20;100.00;101373.66;5052072;28;20056;-51
2022/09/06 04:28:27;;;;;;;10.23;6.63;;;;;;;19.24;100.00;101381.22;5052406;28;20584;-57
2022/09/06 04:30:58;;;;;;;8.68;6.25;;;;;;;19.19;100.00;101377.31;5052372;28;20045;-57
2022/09/06 04:33:33;;;;;;;9.45;6.40;;;;;;;19.15;100.00;101376.75;5052500;28;20056;-52
2022/09/06 04:36:02;;;;;;;12.10;6.93;;;;;;;19.16;100.00;101372.28;5052872;28;20059;-54
2022/09/06 04:38:37;;;;;;;11.10;6.63;;;;;;;19.18;100.00;101368.47;5051743;28;20447;-57
2022/09/06 04:41:06;;;;;;;9.27;6.70;;;;;;;19.11;100.00;101374.53;5052397;28;20463;-52
2022/09/06 04:43:34;;;;;;;9.52;7.05;;;;;;;18.98;100.00;101372.13;5052115;28;20500;-53
2022/09/06 04:46:11;;;;;;;8.60;6.18;;;;;;;19.03;100.00;101378.75;5051880;28;20443;-52
2022/09/06 04:48:40;;;;;;;12.25;6.50;;;;;;;19.11;100.00;101383.34;5051859;28;20500;-57
2022/09/06 04:51:08;;;;;;;10.82;6.80;;;;;;;19.04;100.00;101380.41;5051381;28;20041;-58
2022/09/06 04:53:36;;;;;;;11.25;6.53;;;;;;;19.15;100.00;101373.25;5051879;28;20044;-57
2022/09/06 04:56:04;;;;;;;10.60;7.20;;;;;;;19.09;100.00;101377.34;5052062;28;20041;-59
2022/09/06 04:58:32;;;;;;;10.85;6.63;;;;;;;19.08;100.00;101383.63;5052137;28;20500;-57
2022/09/06 05:01:00;;;;;;;11.00;6.30;;;;;;;19.14;100.00;101374.22;5051967;28;20051;-52
2022/09/06 05:03:30;;;;;;;12.70;7.35;;;;;;;19.04;100.00;101384.91;5052031;28;20496;-52
2022/09/06 05:06:09;;;;;;;8.98;6.35;;;;;;;19.02;100.00;101384.19;5051749;28;20061;-53
2022/09/06 05:08:38;;;;;;;11.43;6.88;;;;;;;19.08;100.00;101384.47;5051878;28;20060;-58
2022/09/06 05:11:07;;;;;;;10.48;6.95;;;;;;;19.09;100.00;101388.81;5052056;28;20065;-50
2022/09/06 05:13:35;;;;;;;12.07;6.95;;;;;;;18.97;100.00;101397.13;5051676;28;20044;-58
2022/09/06 05:16:05;;;;;;;8.98;6.55;;;;;;;18.92;100.00;101392.19;5051786;28;20103;-54
2022/09/06 05:18:35;;;;;;;11.48;7.78;;;;;;;18.85;100.00;101391.06;5051827;28;20076;-54
2022/09/06 05:21:04;;;;;;;9.43;7.03;;;;;;;18.84;100.00;101392.03;5051669;28;20045;-58
2022/09/06 05:23:32;;;;;;;12.50;6.68;;;;;;;18.92;100.00;101402.88;5051666;28;20135;-55
2022/09/06 05:26:00;;;;;;;11.45;7.20;;;;;;;18.84;100.00;101400.88;5051700;28;20106;-53
2022/09/06 05:28:28;;;;;;;10.95;7.20;;;;;;;19.00;100.00;101399.50;5051518;28;20076;-58
2022/09/06 05:31:06;;;;;;;10.85;7.32;;;;;;;18.99;100.00;101395.16;5051722;28;20111;-58
2022/09/06 05:33:35;;;;;;;10.20;7.10;;;;;;;18.89;100.00;101403.16;5051672;28;20052;-53
2022/09/06 05:36:04;;;;;;;11.40;6.60;;;;;;;18.84;100.00;101410.69;5051670;28;20547;-54
2022/09/06 05:38:32;;;;;;;10.30;7.50;;;;;;;18.85;100.00;101417.72;5051473;28;20049;-58
2022/09/06 05:41:00;;;;;;;10.98;8.30;;;;;;;18.89;100.00;101429.81;5051358;28;20055;-57
2022/09/06 05:43:29;;;;;;;10.18;7.35;;;;;;;18.97;100.00;101431.78;5051778;28;20057;-54
2022/09/06 05:45:57;;;;;;;12.18;8.40;;;;;;;18.91;100.00;101436.69;5051429;28;20056;-58
2022/09/06 05:48:25;;;;;;;11.30;7.65;;;;;;;18.97;100.00;101442.44;5051332;28;20049;-51
2022/09/06 05:51:01;;;;;;;11.98;7.80;;;;;;;19.05;100.00;101450.56;5054553;28;20103;-58
2022/09/06 05:53:34;;;;;;;11.88;8.23;;;;;;;19.09;100.00;101452.78;5055162;28;20049;-53
2022/09/06 05:56:03;;;;;;;10.55;7.55;;;;;;;19.08;100.00;101456.44;5055082;28;20187;-52
2022/09/06 05:58:32;;;;;;;10.52;7.97;;;;;;;19.06;100.00;101450.41;5055076;28;20277;-54
2022/09/06 06:01:07;;;;;;;10.80;8.50;;;;;;;19.18;100.00;101456.47;5055039;28;20049;-58
2022/09/06 06:03:35;;;;;;;11.65;8.60;;;;;;;19.23;100.00;101454.19;5054941;28;20093;-53
2022/09/06 06:06:05;;;;;;;11.65;9.20;;;;;;;19.28;100.00;101461.78;5053539;28;20033;-58
2022/09/06 06:08:34;;;;;;;13.60;9.85;;;;;;;19.26;100.00;101458.41;5059695;28;20495;-53
2022/09/06 06:11:03;;;;;;;11.95;9.20;;;;;;;19.27;100.00;101470.75;5072981;28;20056;-58
2022/09/06 06:13:33;;;;;;;12.25;9.38;;;;;;;19.31;100.00;101472.16;5049509;28;20127;-59
2022/09/06 06:16:03;;;;;;;14.30;9.95;;;;;;;19.32;100.00;101468.50;5049280;28;20045;-54
2022/09/06 06:18:31;;;;;;;16.13;9.63;;;;;;;19.30;100.00;101465.13;5049477;28;20121;-59
2022/09/06 06:21:12;;;;;;;12.75;8.82;;;;;;;19.30;100.00;101464.28;5048666;28;20048;-59
2022/09/06 06:23:41;;;;;;;11.32;8.43;;;;;;;19.14;100.00;101464.84;5050167;28;20045;-55
2022/09/06 06:26:10;;;;;;;12.25;7.93;;;;;;;19.26;100.00;101474.38;5049989;28;20068;-56
2022/09/06 06:28:39;;;;;;;11.98;7.80;;;;;;;19.37;100.00;101471.59;5048959;28;20087;-54
2022/09/06 06:31:09;;;;;;;12.45;7.95;;;;;;;19.40;100.00;101471.28;5049064;28;20045;-58
2022/09/06 06:33:38;;;;;;;11.48;7.95;;;;;;;19.44;100.00;101469.16;5046520;28;20440;-58
2022/09/06 06:36:19;;;;;;;13.63;8.40;;;;;;;19.48;100.00;101473.22;5048067;28;20388;-54
2022/09/06 06:38:50;;;;;;;12.27;8.00;;;;;;;19.61;100.00;101467.59;5048264;28;20040;-56
2022/09/06 06:41:20;;;;;;;10.82;8.45;;;;;;;19.67;100.00;101467.00;5049990;28;20045;-56
2022/09/06 06:43:48;;;;;;;10.68;7.25;;;;;;;19.71;100.00;101471.06;5069684;28;20123;-59
2022/09/06 06:46:18;;;;;;;8.90;6.70;;;;;;;19.77;100.00;101467.84;5069112;28;20128;-56
2022/09/06 06:48:46;;;;;;;12.77;7.13;;;;;;;19.96;100.00;101466.13;5054069;28;20115;-53
2022/09/06 06:51:22;;;;;;;10.88;7.13;;;;;;;20.07;100.00;101451.75;5054323;28;20053;-56
2022/09/06 06:53:52;;;;;;;12.00;7.45;;;;;;;20.04;100.00;101452.88;5054086;28;20049;-59
2022/09/06 06:56:22;;;;;;;10.73;7.95;;;;;;;20.12;100.00;101449.47;5054604;28;20053;-59
2022/09/06 06:58:53;;;;;;;9.45;7.25;;;;;;;20.18;100.00;101448.03;5054090;28;20029;-59
2022/09/06 07:01:22;;;;;;;11.02;6.75;;;;;;;20.23;100.00;101446.63;5073408;28;20156;-59
2022/09/06 07:03:51;;;;;;;10.85;7.22;;;;;;;20.31;100.00;101445.84;5074117;28;20055;-59
2022/09/06 07:06:19;;;;;;;13.30;7.00;;;;;;;20.42;100.00;101443.00;5053803;28;20369;-56
2022/09/06 07:08:48;;;;;;;9.65;6.70;;;;;;;20.55;100.00;101436.44;5054117;28;20053;-55
2022/09/06 07:11:19;;;;;;;8.73;6.75;;;;;;;20.63;100.00;101433.84;5053966;28;20132;-59
2022/09/06 07:13:51;;;;;;;9.63;7.40;;;;;;;20.69;100.00;101432.44;5038795;28;20577;-58
2022/09/06 07:16:22;;;;;;;10.70;7.10;;;;;;;20.75;100.00;101424.66;5048469;28;20049;-57
2022/09/06 07:18:51;;;;;;;10.30;6.25;;;;;;;20.85;100.00;101415.72;5047180;28;20041;-59
2022/09/06 07:21:25;;;;;;;9.38;6.47;;;;;;;21.00;100.00;101413.34;5049006;28;20077;-59
2022/09/06 07:24:08;;;;;;;9.93;6.45;;;;;;;21.15;100.00;101414.44;5048641;28;20049;-59
2022/09/06 07:26:41;;;;;;;8.90;5.68;;;;;;;21.23;100.00;101417.19;5048751;28;20649;-58
2022/09/06 07:29:30;;;;;;;8.10;5.57;;;;;;;21.39;100.00;101416.47;5046191;28;20033;-59
2022/09/06 07:31:59;;;;;;;10.43;6.20;;;;;;;21.61;99.41;101416.97;5049246;28;20068;-58
2022/09/06 07:34:43;;;;;;;9.20;6.20;;;;;;;21.71;94.67;101408.81;5045720;28;20041;-58
2022/09/06 07:37:11;;;;;;;10.40;6.20;;;;;;;21.80;96.12;101417.69;5048613;28;20041;-60
2022/09/06 07:39:40;;;;;;;11.20;6.68;;;;;;;21.83;93.42;101417.38;5044894;28;20059;-58
2022/09/06 07:42:09;;;;;;;12.75;7.32;;;;;;;21.83;91.65;101428.94;5049313;28;20120;-58
2022/09/06 07:44:38;;;;;;;10.18;6.28;;;;;;;22.05;94.82;101421.34;5047661;28;20060;-60
2022/09/06 07:47:07;;;;;;;11.73;6.55;;;;;;;22.20;93.00;101425.06;5049199;28;20056;-58
2022/09/06 07:49:55;;;;;;;10.48;6.70;;;;;;;22.38;93.64;101427.66;5046612;28;20033;-60
2022/09/06 07:52:43;;;;;;;8.30;5.80;;;;;;;22.55;92.40;101425.00;5049363;28;20393;-58
2022/09/06 07:55:31;;;;;;;10.20;6.55;;;;;;;22.69;91.42;101427.03;5051348;28;20056;-61
2022/09/06 07:58:01;;;;;;;9.43;5.45;;;;;;;22.74;88.25;101422.03;5053058;28;20048;-58
2022/09/06 08:00:30;;;;;;;9.25;6.10;;;;;;;22.90;86.73;101420.34;5052861;28;20041;-58
2022/09/06 08:02:58;;;;;;;10.15;6.13;;;;;;;23.00;86.81;101418.34;5051379;28;20041;-61
2022/09/06 08:05:27;;;;;;;7.90;5.60;;;;;;;23.13;86.45;101418.69;5032899;28;20385;-61
2022/09/06 08:08:15;;;;;;;9.60;5.63;;;;;;;23.42;85.23;101411.97;5047691;28;20670;-58
2022/09/06 08:11:05;;;;;;;9.23;6.13;;;;;;;23.51;82.17;101420.00;5048534;28;20037;-61
2022/09/06 08:13:35;;;;;;;8.50;5.70;;;;;;;23.67;86.07;101411.91;5045478;28;20041;-60
2022/09/06 08:16:05;;;;;;;11.27;5.72;;;;;;;23.82;79.83;101403.09;5051079;28;20051;-58
2022/09/06 08:18:34;;;;;;;9.15;5.90;;;;;;;23.97;81.78;101401.41;5052134;28;20095;-60
2022/09/06 08:21:10;;;;;;;9.52;6.43;;;;;;;24.08;80.79;101403.69;5052442;28;20048;-58
2022/09/06 08:23:41;;;;;;;9.95;6.20;;;;;;;24.25;80.09;101403.59;5047701;28;20059;-61
2022/09/06 08:26:10;;;;;;;10.88;6.38;;;;;;;24.34;78.25;101401.69;5050381;28;20045;-59
2022/09/06 08:28:40;;;;;;;8.98;6.50;;;;;;;24.36;75.32;101407.75;5051864;28;20500;-59
2022/09/06 08:31:09;;;;;;;10.93;5.50;;;;;;;24.71;77.62;101414.41;5045571;28;20104;-61
2022/09/06 08:33:39;;;;;;;11.50;6.60;;;;;;;24.86;75.17;101406.41;5048325;28;20049;-59
2022/09/06 08:36:08;;;;;;;10.10;5.82;;;;;;;25.07;74.71;101405.72;5047006;28;20124;-61
2022/09/06 08:38:37;;;;;;;10.32;5.75;;;;;;;25.17;73.75;101400.06;5047609;28;20036;-61
2022/09/06 08:41:08;;;;;;;8.60;6.05;;;;;;;25.40;75.47;101400.03;5047775;28;20455;-58
2022/09/06 08:43:37;;;;;;;9.00;5.65;;;;;;;25.40;71.32;101397.34;5046293;28;20056;-59
2022/09/06 08:46:09;;;;;;;9.45;5.70;;;;;;;25.44;69.42;101398.66;5047610;28;20123;-58
2022/09/06 08:48:38;;;;;;;8.63;5.67;;;;;;;25.59;70.11;101397.78;5047567;28;20049;-60
2022/09/06 08:51:38;;;;;;;8.70;5.97;;;;;;;25.60;72.55;101399.47;5050127;28;20045;-58
2022/09/06 08:54:12;;;;;;;7.95;6.00;;;;;;;25.79;71.07;101404.28;5051416;28;20358;-61
2022/09/06 08:56:56;;;;;;;9.38;5.88;;;;;;;25.85;68.46;101394.63;5052079;28;20503;-60
2022/09/06 08:59:24;;;;;;;9.82;6.05;;;;;;;25.86;66.57;101396.28;5064235;28;20396;-57
2022/09/06 09:02:03;;;;;;;9.32;5.57;;;;;;;26.23;68.92;101402.59;5072095;28;20045;-57
2022/09/06 09:04:33;;;;;;;7.82;5.18;;;;;;;26.58;66.73;101396.50;5071943;28;20414;-57
2022/09/06 09:07:17;;;;;;;7.88;5.32;;;;;;;26.54;64.04;101397.91;5070604;28;20055;-60
2022/09/06 09:09:46;;;;;;;10.40;5.65;;;;;;;26.62;64.19;101387.00;5051954;28;20048;-61
2022/09/06 09:12:20;;;;;;;12.20;5.75;;;;;;;26.64;63.28;101382.22;5052170;28;20602;-60
2022/09/06 09:14:51;;;;;;;8.57;5.80;;;;;;;26.80;63.23;101381.97;5051974;28;20049;-58
2022/09/06 09:17:25;;;;;;;9.00;5.53;;;;;;;26.94;61.45;101368.59;5071691;28;20044;-61
2022/09/06 09:19:53;;;;;;;9.63;5.47;;;;;;;26.99;63.00;101374.25;5054572;28;20047;-60
2022/09/06 09:22:24;;;;;;;9.13;5.18;;;;;;;27.15;62.25;101375.81;5052161;28;20045;-58
2022/09/06 09:24:53;;;;;;;7.68;5.10;;;;;;;27.37;60.55;101365.81;5055195;28;20056;-61
2022/09/06 09:27:25;;;;;;;8.38;5.05;;;;;;;27.38;60.42;101364.78;5053340;28;20098;-58
2022/09/06 09:30:00;;;;;;;8.25;5.78;;;;;;;27.53;60.14;101361.97;5050579;28;20052;-58
2022/09/06 09:32:49;;;;;;;9.40;4.63;;;;;;;27.77;60.66;101354.38;5051754;28;20049;-61
2022/09/06 09:35:26;;;;;;;8.40;5.07;;;;;;;27.99;59.63;101357.75;5049864;28;20484;-60
2022/09/06 09:38:07;;;;;;;10.13;5.05;;;;;;;28.04;57.98;101358.00;5050267;28;20041;-61
2022/09/06 09:40:40;;;;;;;7.25;4.55;;;;;;;28.36;57.31;101352.03;5047232;28;20057;-60
2022/09/06 09:43:13;;;;;;;9.75;4.80;;;;;;;28.38;55.15;101342.69;5051830;28;20052;-57
2022/09/06 09:45:42;;;;;;;7.78;3.70;;;;;;;28.56;57.23;101346.66;5054885;28;20061;-58
2022/09/06 09:48:25;;;;;;;8.02;4.55;;;;;;;28.79;54.18;101341.69;5054762;28;20068;-58
2022/09/06 09:50:55;;;;;;;8.23;4.13;;;;;;;28.90;53.49;101342.09;5049222;28;20071;-57
2022/09/06 09:53:24;;;;;;;8.10;4.18;;;;;;;28.99;54.53;101348.97;5051485;28;20133;-60
2022/09/06 09:55:57;;;;;;;7.43;4.00;;;;;;;28.79;52.74;101344.38;5050383;28;20424;-60
2022/09/06 09:58:30;;;;;;;;;;;;;;;28.94;51.39;101354.19;5054351;28;20041;-58
2022/09/06 10:01:09;;;;;;;;;;;;;;;29.14;52.79;101354.16;5055895;28;19921;-60
2022/09/06 10:03:41;;;;;;;7.78;2.88;;;;;;;29.38;52.06;101349.94;5055068;28;19921;-60
2022/09/06 10:06:29;;;;;;;6.30;2.50;;;;;;;29.70;48.60;101335.66;5059521;28;20040;-60
2022/09/06 10:09:21;;;;;;;7.18;2.78;;;;;;;29.82;48.44;101340.19;5069480;28;20056;-58
2022/09/06 10:11:54;;;;;;;6.88;2.47;;;;;;;29.99;48.67;101337.00;5051440;28;20045;-60
2022/09/06 10:14:29;;;;;;;9.20;2.28;;;;;;;30.43;45.66;101340.66;5053208;28;20040;-59
2022/09/06 10:16:58;;;;;;;5.75;2.28;;;;;;;30.57;45.09;101337.84;5050755;28;21020;-59
2022/09/06 10:19:38;;;;;;;6.30;2.95;;;;;;;30.45;45.56;101326.91;5048043;28;20114;-58
2022/09/06 10:22:18;;;;;;;4.97;2.30;;;;;;;30.75;45.61;101340.63;5048855;28;20052;-59
2022/09/06 10:25:03;;;;;;;6.00;2.50;;;;;;;30.80;43.81;101334.50;5045889;28;20045;-59
2022/09/06 10:27:32;;;;;;;6.25;2.20;;;;;;;30.85;43.54;101331.97;5046293;28;20041;-59
2022/09/06 10:30:04;;;;;;;5.93;2.15;;;;;;;30.73;43.38;101345.44;5049734;28;20065;-59
2022/09/06 10:32:41;;;;;;;4.97;2.17;;;;;;;31.17;43.94;101340.88;5051052;28;20504;-60
2022/09/06 10:35:20;;;;;;;6.82;2.20;;;;;;;31.32;42.85;101342.38;5053534;28;20041;-60
2022/09/06 10:37:54;;;;;;;6.10;1.80;;;;;;;31.38;42.71;101337.94;5051907;28;20048;-60
2022/09/06 10:40:30;;;;;;;6.07;1.90;;;;;;;31.32;40.31;101326.91;5055007;28;20097;-61
2022/09/06 10:43:01;;;;;;;6.10;2.00;;;;;;;31.59;41.05;101326.63;5049991;28;20053;-60
2022/09/06 10:45:43;;;;;;;3.63;1.80;;;;;;;31.88;39.79;101326.84;5050597;28;20508;-60
2022/09/06 10:48:16;;;;;;;4.70;1.63;;;;;;;31.97;41.37;101328.19;5055646;28;20059;-60
2022/09/06 10:50:51;;;;;;;6.35;2.10;;;;;;;32.19;40.84;101319.50;5052347;28;20416;-60
2022/09/06 10:53:40;;;;;;;4.43;2.08;;;;;;;32.46;39.47;101319.91;5054186;28;20048;-59
2022/09/06 10:56:15;;;;;;;6.15;2.10;;;;;;;32.15;39.83;101323.75;5053923;28;20132;-60
2022/09/06 10:58:51;;;;;;;5.55;1.98;;;;;;;32.53;41.15;101317.91;5054617;28;20454;-60
2022/09/06 11:01:46;;;;;;;6.80;2.10;;;;;;;32.98;39.57;101315.69;5034087;28;20103;-61
2022/09/06 11:04:23;;;;;;;4.82;2.28;;;;;;;32.73;38.48;101319.50;5042486;28;20071;-60
2022/09/06 11:06:57;;;;;;;4.03;1.98;;;;;;;33.11;39.03;101320.88;5049505;28;20073;-61
2022/09/06 11:09:32;;;;;;;4.32;1.90;;;;;;;33.07;38.37;101325.16;5054181;28;20118;-59
2022/09/06 11:12:07;;;;;;;4.72;1.92;;;;;;;33.11;38.04;101326.31;5054173;28;20055;-59
2022/09/06 11:14:38;;;;;;;5.22;2.10;;;;;;;33.51;37.62;101330.16;5053681;28;20049;-60
2022/09/06 11:17:10;;;;;;;5.22;1.75;;;;;;;33.67;38.12;101329.38;5086149;28;20063;-59
2022/09/06 11:19:46;;;;;;;4.22;1.70;;;;;;;33.76;38.02;101327.13;5053502;28;20141;-61
2022/09/06 11:22:44;;;;;;;4.15;2.00;;;;;;;34.01;36.28;101329.50;5086225;28;20049;-61
2022/09/06 11:25:43;;;;;;;5.03;1.85;;;;;;;34.06;36.13;101330.66;5053526;28;20047;-60
2022/09/06 11:28:17;;;;;;;4.65;2.13;;;;;;;33.74;34.66;101334.69;5053410;28;20070;-59
2022/09/06 11:30:47;;;;;;;7.32;2.10;;;;;;;34.19;35.29;101336.63;5053350;28;20086;-61
2022/09/06 11:33:24;;;;;;;5.30;1.75;;;;;;;34.13;34.79;101337.63;5053558;28;20040;-61
2022/09/06 11:35:54;;;;;;;4.75;1.85;;;;;;;34.41;35.02;101344.13;5053761;28;20049;-61
2022/09/06 11:38:26;;;;;;;6.00;2.00;;;;;;;34.62;33.90;101347.16;5053378;28;20068;-60
2022/09/06 11:40:59;;;;;;;;;;;;;;;34.81;35.14;101343.13;5054103;28;20045;-61
2022/09/06 11:43:46;;;;;;;3.70;2.10;;;;;;;34.99;34.13;101349.41;5053271;28;19921;-61